Decoded Metar for KMOT (MINOT in ND, USA) (IATA:MOT) | Meteo·Mobile Aviation Weather
aviador You're here:

KMOT Decoded Metar

MINOT in ND, USA
Report Time2018-08-21 21:54:00
UTC Time2018-08-21 22:18:41
Flight Rules vfr VFR
Wind290° at 09 kt
W.Decomp.*RWY 26: 8.5 kt HW 3.1 kt RCW
RWY 31: 7.8 kt HW 4.5 kt LCW
W.Rank290° ranks 1
Current wind is below 290° avg. (13.3)
Visibility9999 m
Phenomena:Smoke
Clouds:N/A
Expected CloudBase > 10,800 ft AGL from Temp-Dew spread
CeilingNone
Temp26°C (ISA +14)
Dew Point-1°C (17% RH)
AAT20.6°C
QNH1022 hPa
Density Alt3,140 ft
Elevation1,703 ft
Report Wrong Elevation
Raw Report
KMOT 212154Z 29009KT 10SM FU CLR 26/M01 A3018 RMK AO2 SLP218
T02611011=

Extra information for KMOT:More info

Metar Taf Metar & Taf Last 4 Metars F.Rules Stats Wind Profile Meteogram Temp Stats Airport Information Weather charts Add Link Nearby VenuesMetar ALERT Operation Metar Decoded Social comments

AIRNAV info for KMOT